• Join FlightAware (Why Join?)
  • Login
  • US Flag 
11:12PM EDT


 

Airport Tracker/Info


-or-


 

Live Flight TrackerFlight Track Log ✈ SWA2353 ✈ 09-May-2013 ✈ KMDW - KSTL

Flight Track Log - Related Links

Times and Time Zones

All times are in EDT time to prevent confusion due to time zone crossing. See the SWA2353 flight status page for this flight to view local times or setup timezone preferences in your user account.

Time Position Orientation Groundspeed Altitude Reporting Facility
EDT Latitude Longitude Course Direction KTS MPH feet Rate Location/Type
09:43PM 41.7833 -87.7000 196° South 189 217 2,600  Level Chicago TRACON
09:46PM 41.6703 -87.7458 197° South 256 295 6,100 1,860 Climbing Chicago Center
09:47PM 41.6031 -87.8172 218° Southwest 258 297 8,900 2,820 Climbing Chicago Center
09:48PM 41.5458 -87.8789 219° Southwest 266 306 12,000 2,340 Climbing Chicago Center
09:49PM 41.3085 -88.0510 196° South  Level FlightAware Approximate
09:49PM 41.4792 -87.9517 219° Southwest 307 353 13,800  Level Chicago Center
09:50PM 41.4144 -88.0242 220° Southwest 334 384 16,700 2,940 Climbing Chicago Center
09:51PM 41.3003 -88.0658 195° South 361 415 19,900 2,820 Climbing Chicago Center
09:52PM 41.1964 -88.0900 190° South 383 441 22,500 2,820 Climbing Chicago Center
09:53PM 41.0906 -88.1036 186° South 386 444 25,800 1,680 Climbing Chicago Center
09:54PM 40.9889 -88.1142 184° South 373 429 26,000 60 Climbing Chicago Center
09:55PM 40.8897 -88.1444 193° South 370 426 26,000  Level Chicago Center
09:56PM 40.7778 -88.2106 204° Southwest 371 427 26,000  Level Chicago Center
09:57PM 40.6839 -88.2644 204° Southwest 370 426 26,000  Level Chicago Center
09:58PM 40.5906 -88.3192 204° Southwest 368 423 26,000  Level Chicago Center
09:59PM 40.4969 -88.3722 203° Southwest 368 423 26,000  Level Chicago Center
10:00PM 40.4025 -88.4272 204° Southwest 372 428 26,000  Level Chicago Center
10:01PM 40.3078 -88.4814 204° Southwest 374 430 26,000  Level Chicago Center
10:02PM 40.2014 -88.5417 203° Southwest 374 430 26,000  Level Chicago Center
10:03PM 40.1228 -88.5858 203° Southwest 376 433 26,000 -480 Level Kansas City Center
10:04PM 40.0267 -88.6400 203° Southwest 376 433 25,200 -840 Descending Kansas City Center
10:05PM 39.9303 -88.6961 204° Southwest 377 434 24,300 -600 Descending Kansas City Center
10:06PM 39.8428 -88.7758 215° Southwest 384 442 24,000 -180 Descending Kansas City Center
10:07PM 39.7594 -88.8597 218° Southwest 379 436 24,000  Level Kansas City Center
10:08PM 39.6797 -88.9369 217° Southwest 364 419 24,000  Level Kansas City Center
10:09PM 39.6000 -89.0142 217° Southwest 359 413 24,000  Level Kansas City Center
10:10PM 39.5189 -89.0914 216° Southwest 360 414 24,000 -240 Level Kansas City Center
10:11PM 39.4400 -89.1689 217° Southwest 356 410 23,600 -1,200 Descending Kansas City Center
10:12PM 39.3653 -89.2417 217° Southwest 340 391 21,600 -1,860 Descending Kansas City Center
10:13PM 39.2925 -89.3103 216° Southwest 331 381 19,800 -1,920 Descending Kansas City Center
10:14PM 39.2078 -89.3914 217° Southwest 322 371 17,700 -1,860 Descending Kansas City Center
10:15PM 39.1408 -89.4561 217° Southwest 310 357 16,000 -1,800 Descending Kansas City Center
10:16PM 39.0697 -89.5239 217° Southwest 298 343 14,100 -1,740 Descending Kansas City Center
10:17PM 39.0064 -89.5858 217° Southwest 288 331 12,500 -1,680 Descending Kansas City Center
10:18PM 38.9489 -89.6525 222° Southwest 279 321 10,700 -1,260 Descending Kansas City Center
10:19PM 38.8989 -89.7175 225° Southwest 276 318 10,000 -660 Descending Kansas City Center
10:20PM 38.8481 -89.7839 225° Southwest 269 310 9,400 -960 Descending Kansas City Center
10:21PM 38.8158 -89.8592 241° Southwest 251 289 8,100 -1,320 Descending Kansas City Center
10:22PM 38.7808 -89.9314 238° Southwest 243 280 6,700 -1,320 Descending Kansas City Center
10:23PM 38.7461 -90.0036 238° Southwest 240 276 5,500 -900 Descending Kansas City Center
10:24PM 38.7097 -90.0811 239° Southwest 224 258 4,900 -600 Descending Kansas City Center
10:25PM 38.6911 -90.1383 247° West 204 235 4,300 -900 Descending Kansas City Center
10:27PM 38.6956 -90.2047 275° West 193 222 3,100 -1,140 Descending Kansas City Center
10:28PM 38.7019 -90.2658 278° West 182 209 2,000 -960 Descending Kansas City Center
10:29PM 38.7228 -90.3067 303° West 152 175 1,200 -660 Descending Kansas City Center
10:30PM 38.7442 -90.3492 303° West 142 163 700 -540 Descending Kansas City Center
10:32PM 38.7333 -90.3667 169° South  Level FlightAware Approximate